KLVK

Livermore Municipal Airport

Livermore, California, USA
METAR KLVK 191153Z AUTO 00000KT 6SM BR BKN004 06/06 A3029 RMK AO2 SLP258 T00610056 10089 20061 58013
Observed Flight Rules
Dec-19 @ 11:53 UTC (41 minutes ago) Instrument Flight Rules
Visibility Clouds Conditions
6 miles
  • Broken at 400' AGL
  • Mist
Temperatures Readings
Current 6°C / 43°F
Dewpoint 6°C / 43°F
Humidity 100%
Altimeter 30.29" Hg
Pressure 1025.8 hPa
Elevation 117
METAR KLVK 191153Z AUTO 00000KT 6SM BR BKN004 06/06 A3029 RMK AO2 SLP258 T00610056 10089 20061 58013
Observed Flight Rules
Dec-19 @ 11:53 UTC
(41 minutes ago)
LIFR
Clouds
  • Broken at 400' AGL
Conditions
  • Mist
Temperature Dewpoint
6°C / 43°F 6°C / 43°F
Humidity Altimeter Pressure
100% 30.29" Hg 1025.8 hPa